sensor_id;sensor_type;location;lat;lon;timestamp;P1;durP1;ratioP1;P2;durP2;ratioP2
66127;SDS011;52925;52.436;-1.952;2023-07-31T00:00:46;1.93;;;1.27;;
66127;SDS011;52925;52.436;-1.952;2023-07-31T00:02:08;2.07;;;1.10;;
66127;SDS011;52925;52.436;-1.952;2023-07-31T00:03:28;2.60;;;1.40;;
66127;SDS011;52925;52.436;-1.952;2023-07-31T00:04:48;2.00;;;1.20;;
66127;SDS011;52925;52.436;-1.952;2023-07-31T00:06:08;1.57;;;1.10;;
66127;SDS011;52925;52.436;-1.952;2023-07-31T00:07:29;3.10;;;1.50;;
66127;SDS011;52925;52.436;-1.952;2023-07-31T00:08:49;1.30;;;1.00;;
66127;SDS011;52925;52.436;-1.952;2023-07-31T00:10:09;2.07;;;1.07;;
66127;SDS011;52925;52.436;-1.952;2023-07-31T00:11:29;2.67;;;1.33;;
66127;SDS011;52925;52.436;-1.952;2023-07-31T00:12:50;2.10;;;0.90;;
66127;SDS011;52925;52.436;-1.952;2023-07-31T00:14:10;4.37;;;1.30;;
66127;SDS011;52925;52.436;-1.952;2023-07-31T00:15:31;2.23;;;1.30;;
66127;SDS011;52925;52.436;-1.952;2023-07-31T00:16:51;2.50;;;1.13;;
66127;SDS011;52925;52.436;-1.952;2023-07-31T00:18:13;3.67;;;1.63;;
66127;SDS011;52925;52.436;-1.952;2023-07-31T00:19:32;1.77;;;1.20;;
66127;SDS011;52925;52.436;-1.952;2023-07-31T00:20:53;1.70;;;1.23;;
66127;SDS011;52925;52.436;-1.952;2023-07-31T00:22:13;2.37;;;1.07;;
66127;SDS011;52925;52.436;-1.952;2023-07-31T00:23:34;1.83;;;1.13;;
66127;SDS011;52925;52.436;-1.952;2023-07-31T00:24:55;3.57;;;1.40;;
66127;SDS011;52925;52.436;-1.952;2023-07-31T00:26:16;2.40;;;1.07;;
66127;SDS011;52925;52.436;-1.952;2023-07-31T00:27:36;2.80;;;1.20;;
66127;SDS011;52925;52.436;-1.952;2023-07-31T00:28:57;2.17;;;1.10;;
66127;SDS011;52925;52.436;-1.952;2023-07-31T00:30:17;1.03;;;0.93;;
66127;SDS011;52925;52.436;-1.952;2023-07-31T00:31:37;1.87;;;1.20;;
66127;SDS011;52925;52.436;-1.952;2023-07-31T00:32:57;2.37;;;1.37;;
66127;SDS011;52925;52.436;-1.952;2023-07-31T00:34:20;2.07;;;1.10;;
66127;SDS011;52925;52.436;-1.952;2023-07-31T00:35:39;1.60;;;1.13;;
66127;SDS011;52925;52.436;-1.952;2023-07-31T00:37:00;2.77;;;1.10;;
66127;SDS011;52925;52.436;-1.952;2023-07-31T00:38:20;1.93;;;1.33;;
66127;SDS011;52925;52.436;-1.952;2023-07-31T00:39:41;1.70;;;0.90;;
66127;SDS011;52925;52.436;-1.952;2023-07-31T00:41:02;1.47;;;1.10;;
66127;SDS011;52925;52.436;-1.952;2023-07-31T00:42:21;3.57;;;1.33;;
66127;SDS011;52925;52.436;-1.952;2023-07-31T00:43:42;1.67;;;1.20;;
66127;SDS011;52925;52.436;-1.952;2023-07-31T00:45:03;1.27;;;1.00;;
66127;SDS011;52925;52.436;-1.952;2023-07-31T00:46:24;1.43;;;0.80;;
66127;SDS011;52925;52.436;-1.952;2023-07-31T00:47:44;2.37;;;1.10;;
66127;SDS011;52925;52.436;-1.952;2023-07-31T00:49:05;2.67;;;1.17;;
66127;SDS011;52925;52.436;-1.952;2023-07-31T00:50:27;2.57;;;1.00;;
66127;SDS011;52925;52.436;-1.952;2023-07-31T00:51:51;1.73;;;1.07;;
66127;SDS011;52925;52.436;-1.952;2023-07-31T00:53:11;1.40;;;1.30;;
66127;SDS011;52925;52.436;-1.952;2023-07-31T00:54:32;1.27;;;0.87;;
66127;SDS011;52925;52.436;-1.952;2023-07-31T00:55:53;1.97;;;1.10;;
66127;SDS011;52925;52.436;-1.952;2023-07-31T00:57:14;1.30;;;0.80;;
66127;SDS011;52925;52.436;-1.952;2023-07-31T00:58:34;1.20;;;0.97;;
66127;SDS011;52925;52.436;-1.952;2023-07-31T00:59:55;1.30;;;0.80;;
66127;SDS011;52925;52.436;-1.952;2023-07-31T01:01:15;1.97;;;0.90;;
66127;SDS011;52925;52.436;-1.952;2023-07-31T01:02:35;1.53;;;1.10;;
66127;SDS011;52925;52.436;-1.952;2023-07-31T01:03:55;2.30;;;0.90;;
66127;SDS011;52925;52.436;-1.952;2023-07-31T01:05:17;1.47;;;1.10;;
66127;SDS011;52925;52.436;-1.952;2023-07-31T01:06:44;1.03;;;0.70;;
66127;SDS011;52925;52.436;-1.952;2023-07-31T01:08:11;2.43;;;1.10;;
66127;SDS011;52925;52.436;-1.952;2023-07-31T01:09:37;2.80;;;1.20;;
66127;SDS011;52925;52.436;-1.952;2023-07-31T01:11:06;0.93;;;0.63;;
66127;SDS011;52925;52.436;-1.952;2023-07-31T01:12:32;2.03;;;1.10;;
66127;SDS011;52925;52.436;-1.952;2023-07-31T01:13:53;2.10;;;0.90;;
66127;SDS011;52925;52.436;-1.952;2023-07-31T01:15:15;2.00;;;1.00;;
66127;SDS011;52925;52.436;-1.952;2023-07-31T01:17:14;1.57;;;0.90;;
66127;SDS011;52925;52.436;-1.952;2023-07-31T22:09:44;4.57;;;1.90;;
66127;SDS011;52925;52.436;-1.952;2023-07-31T22:11:05;4.20;;;1.73;;
66127;SDS011;52925;52.436;-1.952;2023-07-31T22:12:25;4.97;;;1.80;;
66127;SDS011;52925;52.436;-1.952;2023-07-31T22:13:46;4.87;;;2.00;;
66127;SDS011;52925;52.436;-1.952;2023-07-31T22:15:06;5.10;;;1.90;;
66127;SDS011;52925;52.436;-1.952;2023-07-31T22:16:28;3.37;;;2.07;;
66127;SDS011;52925;52.436;-1.952;2023-07-31T22:17:48;5.70;;;2.00;;
66127;SDS011;52925;52.436;-1.952;2023-07-31T22:19:09;4.70;;;2.03;;
66127;SDS011;52925;52.436;-1.952;2023-07-31T22:20:29;4.43;;;2.00;;
66127;SDS011;52925;52.436;-1.952;2023-07-31T22:21:50;4.13;;;1.93;;
66127;SDS011;52925;52.436;-1.952;2023-07-31T22:23:10;3.87;;;1.90;;
66127;SDS011;52925;52.436;-1.952;2023-07-31T22:24:31;4.40;;;2.07;;
66127;SDS011;52925;52.436;-1.952;2023-07-31T22:25:52;2.90;;;1.90;;
66127;SDS011;52925;52.436;-1.952;2023-07-31T22:27:13;4.07;;;1.80;;
66127;SDS011;52925;52.436;-1.952;2023-07-31T22:28:33;4.63;;;2.27;;
66127;SDS011;52925;52.436;-1.952;2023-07-31T22:29:54;2.43;;;1.70;;
66127;SDS011;52925;52.436;-1.952;2023-07-31T22:31:14;6.80;;;2.43;;
66127;SDS011;52925;52.436;-1.952;2023-07-31T22:32:35;5.93;;;2.03;;
66127;SDS011;52925;52.436;-1.952;2023-07-31T22:33:55;5.07;;;2.07;;
66127;SDS011;52925;52.436;-1.952;2023-07-31T22:35:17;4.23;;;2.00;;
66127;SDS011;52925;52.436;-1.952;2023-07-31T22:36:37;4.57;;;1.73;;
66127;SDS011;52925;52.436;-1.952;2023-07-31T22:37:57;4.93;;;2.20;;
66127;SDS011;52925;52.436;-1.952;2023-07-31T22:39:17;3.43;;;1.83;;
66127;SDS011;52925;52.436;-1.952;2023-07-31T22:40:38;5.13;;;2.17;;
66127;SDS011;52925;52.436;-1.952;2023-07-31T22:41:59;6.03;;;2.10;;
66127;SDS011;52925;52.436;-1.952;2023-07-31T22:43:20;4.00;;;1.93;;
66127;SDS011;52925;52.436;-1.952;2023-07-31T22:44:40;6.00;;;2.13;;
66127;SDS011;52925;52.436;-1.952;2023-07-31T22:46:01;6.63;;;2.17;;
66127;SDS011;52925;52.436;-1.952;2023-07-31T22:47:21;3.63;;;2.00;;
66127;SDS011;52925;52.436;-1.952;2023-07-31T22:48:42;3.13;;;1.70;;
66127;SDS011;52925;52.436;-1.952;2023-07-31T22:50:02;4.13;;;2.03;;
66127;SDS011;52925;52.436;-1.952;2023-07-31T22:51:24;4.53;;;2.43;;
66127;SDS011;52925;52.436;-1.952;2023-07-31T22:52:44;5.43;;;1.90;;
66127;SDS011;52925;52.436;-1.952;2023-07-31T22:54:06;3.57;;;2.00;;
66127;SDS011;52925;52.436;-1.952;2023-07-31T22:55:26;6.47;;;2.43;;
66127;SDS011;52925;52.436;-1.952;2023-07-31T22:56:47;5.07;;;1.93;;
66127;SDS011;52925;52.436;-1.952;2023-07-31T22:58:09;4.23;;;1.90;;
66127;SDS011;52925;52.436;-1.952;2023-07-31T22:59:29;6.13;;;2.37;;
66127;SDS011;52925;52.436;-1.952;2023-07-31T23:00:49;5.13;;;2.17;;
66127;SDS011;52925;52.436;-1.952;2023-07-31T23:02:10;4.73;;;2.50;;
66127;SDS011;52925;52.436;-1.952;2023-07-31T23:03:30;6.17;;;2.40;;
66127;SDS011;52925;52.436;-1.952;2023-07-31T23:04:52;5.97;;;2.33;;
66127;SDS011;52925;52.436;-1.952;2023-07-31T23:06:12;2.43;;;1.83;;
66127;SDS011;52925;52.436;-1.952;2023-07-31T23:07:34;4.47;;;2.30;;
66127;SDS011;52925;52.436;-1.952;2023-07-31T23:08:54;6.30;;;2.40;;
66127;SDS011;52925;52.436;-1.952;2023-07-31T23:10:14;3.97;;;2.20;;
66127;SDS011;52925;52.436;-1.952;2023-07-31T23:11:34;6.10;;;2.53;;
66127;SDS011;52925;52.436;-1.952;2023-07-31T23:12:55;6.23;;;2.37;;
66127;SDS011;52925;52.436;-1.952;2023-07-31T23:14:16;7.17;;;2.53;;
66127;SDS011;52925;52.436;-1.952;2023-07-31T23:15:38;5.77;;;2.07;;
66127;SDS011;52925;52.436;-1.952;2023-07-31T23:16:58;3.70;;;2.00;;
66127;SDS011;52925;52.436;-1.952;2023-07-31T23:18:18;5.80;;;2.70;;
66127;SDS011;52925;52.436;-1.952;2023-07-31T23:19:38;6.23;;;2.37;;
66127;SDS011;52925;52.436;-1.952;2023-07-31T23:20:59;3.97;;;2.47;;
66127;SDS011;52925;52.436;-1.952;2023-07-31T23:22:19;5.93;;;2.43;;
66127;SDS011;52925;52.436;-1.952;2023-07-31T23:23:40;4.73;;;2.27;;
66127;SDS011;52925;52.436;-1.952;2023-07-31T23:25:00;7.20;;;2.43;;
66127;SDS011;52925;52.436;-1.952;2023-07-31T23:26:21;5.10;;;2.07;;
66127;SDS011;52925;52.436;-1.952;2023-07-31T23:27:41;5.47;;;2.80;;
66127;SDS011;52925;52.436;-1.952;2023-07-31T23:29:03;5.77;;;2.40;;
66127;SDS011;52925;52.436;-1.952;2023-07-31T23:30:24;5.87;;;2.30;;
66127;SDS011;52925;52.436;-1.952;2023-07-31T23:31:45;5.73;;;2.60;;
66127;SDS011;52925;52.436;-1.952;2023-07-31T23:33:05;5.03;;;2.17;;
66127;SDS011;52925;52.436;-1.952;2023-07-31T23:34:26;6.90;;;2.73;;
66127;SDS011;52925;52.436;-1.952;2023-07-31T23:35:47;4.53;;;2.17;;
66127;SDS011;52925;52.436;-1.952;2023-07-31T23:37:07;7.43;;;2.53;;
66127;SDS011;52925;52.436;-1.952;2023-07-31T23:38:28;5.07;;;2.63;;
66127;SDS011;52925;52.436;-1.952;2023-07-31T23:39:47;5.50;;;2.33;;
66127;SDS011;52925;52.436;-1.952;2023-07-31T23:41:08;3.83;;;2.00;;
66127;SDS011;52925;52.436;-1.952;2023-07-31T23:42:29;6.27;;;2.47;;
66127;SDS011;52925;52.436;-1.952;2023-07-31T23:43:49;5.07;;;2.03;;
66127;SDS011;52925;52.436;-1.952;2023-07-31T23:45:09;6.43;;;2.40;;
66127;SDS011;52925;52.436;-1.952;2023-07-31T23:46:35;4.23;;;2.57;;
66127;SDS011;52925;52.436;-1.952;2023-07-31T23:47:55;5.20;;;2.30;;
66127;SDS011;52925;52.436;-1.952;2023-07-31T23:49:16;3.73;;;2.07;;
66127;SDS011;52925;52.436;-1.952;2023-07-31T23:50:36;5.17;;;2.17;;
66127;SDS011;52925;52.436;-1.952;2023-07-31T23:52:00;7.70;;;2.63;;
66127;SDS011;52925;52.436;-1.952;2023-07-31T23:53:20;6.23;;;2.53;;
66127;SDS011;52925;52.436;-1.952;2023-07-31T23:54:41;3.43;;;2.10;;
66127;SDS011;52925;52.436;-1.952;2023-07-31T23:56:01;5.37;;;2.47;;
66127;SDS011;52925;52.436;-1.952;2023-07-31T23:57:22;5.30;;;2.20;;
66127;SDS011;52925;52.436;-1.952;2023-07-31T23:58:42;5.37;;;2.47;;
